createdAt,value
2022-08-25T00:02:22.116Z,85.74
2022-08-25T00:05:11.265Z,85.87
2022-08-25T00:07:59.076Z,85.96
2022-08-25T00:11:00.217Z,85.80
2022-08-25T00:13:56.603Z,85.49
2022-08-25T00:16:43.942Z,85.49
2022-08-25T00:19:34.953Z,85.86
2022-08-25T00:22:22.599Z,86.09
2022-08-25T00:25:10.036Z,86.14
2022-08-25T00:27:59.260Z,86.01
2022-08-25T00:30:47.129Z,86.21
2022-08-25T00:33:34.533Z,86.39
2022-08-25T00:36:22.314Z,85.90
2022-08-25T00:39:10.264Z,86.35
2022-08-25T00:41:58.248Z,86.38
2022-08-25T00:44:45.502Z,86.26
2022-08-25T00:47:33.140Z,86.28
2022-08-25T00:50:22.769Z,86.12
2022-08-25T00:53:13.844Z,86.76
2022-08-25T00:56:02.014Z,86.88
2022-08-25T00:58:49.532Z,86.73
2022-08-25T01:01:37.508Z,86.86
2022-08-25T01:04:25.672Z,86.62
2022-08-25T01:07:17.363Z,86.45
2022-08-25T01:10:08.110Z,86.35
2022-08-25T01:13:01.901Z,86.25
2022-08-25T01:15:52.900Z,86.02
2022-08-25T01:18:55.150Z,86.29
2022-08-25T01:21:48.664Z,85.75
2022-08-25T01:24:43.178Z,85.73
2022-08-25T01:27:30.639Z,85.13
2022-08-25T01:30:18.149Z,85.21
2022-08-25T01:33:07.573Z,85.23
2022-08-25T01:35:55.242Z,85.17
2022-08-25T01:38:42.433Z,84.98
2022-08-25T01:41:29.590Z,85.03
2022-08-25T01:44:17.913Z,84.72
2022-08-25T01:47:06.230Z,84.88
2022-08-25T01:49:53.482Z,85.06
2022-08-25T01:52:51.112Z,85.12
2022-08-25T01:55:56.097Z,85.14
2022-08-25T01:58:46.361Z,85.04
2022-08-25T02:01:34.558Z,85.12
2022-08-25T02:04:22.346Z,84.82
2022-08-25T02:07:10.170Z,84.66
2022-08-25T02:09:58.726Z,85.10
2022-08-25T02:12:47.770Z,85.24
2022-08-25T02:15:35.261Z,84.92
2022-08-25T02:18:22.906Z,84.82
2022-08-25T02:21:11.534Z,84.51
2022-08-25T02:23:58.851Z,84.61
2022-08-25T02:26:47.127Z,85.18
2022-08-25T02:29:34.410Z,85.63
2022-08-25T02:32:21.794Z,85.63
2022-08-25T02:35:09.940Z,85.60
2022-08-25T02:37:57.127Z,86.02
2022-08-25T02:40:44.841Z,85.43
2022-08-25T02:43:32.096Z,85.84
2022-08-25T02:46:21.371Z,85.34
2022-08-25T02:49:09.204Z,85.16
2022-08-25T02:51:56.534Z,84.93
2022-08-25T02:54:43.772Z,85.12
2022-08-25T02:57:31.825Z,85.33
2022-08-25T03:00:19.288Z,85.55
2022-08-25T03:03:07.294Z,85.64
2022-08-25T03:05:56.246Z,85.65
2022-08-25T03:08:44.316Z,85.74
2022-08-25T03:11:32.008Z,85.83
2022-08-25T03:14:19.269Z,85.96
2022-08-25T03:17:08.683Z,85.96
2022-08-25T03:19:57.225Z,85.83
2022-08-25T03:22:44.524Z,85.71
2022-08-25T03:25:50.516Z,85.93
2022-08-25T03:28:37.904Z,85.78
2022-08-25T03:31:29.186Z,85.96
2022-08-25T03:34:18.350Z,85.81
2022-08-25T03:37:07.418Z,85.74
2022-08-25T03:39:54.612Z,85.65
2022-08-25T03:42:45.152Z,86.02
2022-08-25T03:45:32.589Z,85.96
2022-08-25T03:48:19.842Z,86.36
2022-08-25T03:51:07.153Z,85.89
2022-08-25T03:53:54.791Z,86.50
2022-08-25T03:56:43.317Z,86.44
2022-08-25T03:59:30.522Z,86.62
2022-08-25T04:02:17.855Z,86.59
2022-08-25T04:05:05.688Z,86.52
2022-08-25T04:07:53.057Z,86.61
2022-08-25T04:10:40.372Z,86.72
2022-08-25T04:13:27.538Z,86.75
2022-08-25T04:16:18.757Z,86.82
2022-08-25T04:19:09.490Z,86.71
2022-08-25T04:21:57.351Z,86.66
2022-08-25T04:24:44.751Z,86.48
2022-08-25T04:27:32.242Z,86.53
2022-08-25T04:30:19.660Z,86.57
2022-08-25T04:33:09.206Z,86.44
2022-08-25T04:35:56.602Z,86.34
2022-08-25T04:38:45.299Z,86.29
2022-08-25T04:41:32.563Z,85.95
2022-08-25T04:44:19.850Z,86.16
2022-08-25T04:47:07.156Z,86.01
2022-08-25T04:49:54.704Z,85.96
2022-08-25T04:52:42.169Z,85.94
2022-08-25T04:55:29.500Z,85.85
2022-08-25T04:58:17.365Z,86.13
2022-08-25T05:01:10.758Z,86.25
2022-08-25T05:04:01.057Z,86.03
2022-08-25T05:06:48.667Z,86.13
2022-08-25T05:09:36.634Z,85.95
2022-08-25T05:12:24.074Z,85.96
2022-08-25T05:15:30.226Z,86.10
2022-08-25T05:18:18.740Z,86.04
2022-08-25T05:21:11.136Z,86.00
2022-08-25T05:23:59.860Z,85.87
2022-08-25T05:26:47.335Z,86.13
2022-08-25T05:29:34.577Z,86.19
2022-08-25T05:32:21.770Z,86.14
2022-08-25T05:35:09.264Z,86.10
2022-08-25T05:37:57.601Z,86.13
2022-08-25T05:40:45.247Z,86.61
2022-08-25T05:43:33.235Z,86.44
2022-08-25T05:46:21.657Z,86.61
2022-08-25T05:49:08.892Z,86.70
2022-08-25T05:51:56.172Z,87.05
2022-08-25T05:54:43.398Z,87.40
2022-08-25T05:57:30.665Z,87.37
2022-08-25T06:00:18.922Z,87.23
2022-08-25T06:03:06.777Z,87.09
2022-08-25T06:05:53.969Z,87.14
2022-08-25T06:08:41.330Z,87.59
2022-08-25T06:11:28.526Z,87.76
2022-08-25T06:14:16.540Z,87.85
2022-08-25T06:17:03.892Z,87.71
2022-08-25T06:19:51.093Z,87.91
2022-08-25T06:22:38.491Z,87.87
2022-08-25T06:25:27.578Z,87.73
2022-08-25T06:28:14.765Z,87.64
2022-08-25T06:31:03.876Z,87.71
2022-08-25T06:33:51.777Z,87.52
2022-08-25T06:36:39.240Z,87.46
2022-08-25T06:39:26.444Z,87.49
2022-08-25T06:42:14.044Z,87.04
2022-08-25T06:45:01.564Z,86.98
2022-08-25T06:47:53.880Z,86.71
2022-08-25T06:50:41.792Z,86.77
2022-08-25T06:53:29.078Z,87.03
2022-08-25T06:56:17.991Z,86.51
2022-08-25T06:59:06.532Z,86.54
2022-08-25T07:01:53.875Z,86.30
2022-08-25T07:04:41.326Z,85.97
2022-08-25T07:07:43.857Z,85.71
2022-08-25T07:10:31.713Z,85.29
2022-08-25T07:13:18.975Z,85.05
2022-08-25T07:16:07.110Z,84.85
2022-08-25T07:18:56.815Z,84.57
2022-08-25T07:21:46.021Z,84.86
2022-08-25T07:24:34.021Z,84.70
2022-08-25T07:27:21.634Z,84.04
2022-08-25T07:30:11.441Z,84.36
2022-08-25T07:32:59.531Z,83.81
2022-08-25T07:35:47.552Z,84.32
2022-08-25T07:38:34.752Z,83.81
2022-08-25T07:41:25.692Z,83.67
2022-08-25T07:44:13.441Z,83.10
2022-08-25T07:47:01.422Z,83.27
2022-08-25T07:49:48.808Z,83.00
2022-08-25T07:52:36.229Z,82.75
2022-08-25T07:55:28.279Z,82.10
2022-08-25T07:58:16.086Z,81.86
2022-08-25T08:01:03.739Z,81.95
2022-08-25T08:03:51.707Z,81.83
2022-08-25T08:06:39.591Z,82.09
2022-08-25T08:09:33.756Z,81.93
2022-08-25T08:12:21.321Z,81.43
2022-08-25T08:15:10.861Z,81.56
2022-08-25T08:18:00.167Z,81.13
2022-08-25T08:20:49.577Z,80.61
2022-08-25T08:23:36.881Z,80.78
2022-08-25T08:26:36.448Z,80.68
2022-08-25T08:29:32.776Z,80.25
2022-08-25T08:32:20.990Z,79.90
2022-08-25T08:35:12.619Z,79.78
2022-08-25T08:38:00.431Z,79.82
2022-08-25T08:42:07.233Z,77.85
2022-08-25T08:44:58.047Z,79.36
2022-08-25T08:48:07.700Z,79.84
2022-08-25T08:51:24.725Z,78.61
2022-08-25T08:54:20.491Z,78.98
2022-08-25T08:57:18.169Z,79.33
2022-08-25T09:00:06.846Z,79.31
2022-08-25T09:03:02.789Z,79.28
2022-08-25T09:05:55.285Z,79.17
2022-08-25T09:08:45.082Z,79.21
2022-08-25T09:11:53.706Z,75.54
2022-08-25T09:15:18.898Z,72.84
2022-08-25T09:18:23.511Z,74.79
2022-08-25T09:21:37.500Z,70.44
2022-08-25T09:24:48.670Z,73.31
2022-08-25T09:27:48.519Z,73.46
2022-08-25T09:31:03.706Z,71.73
2022-08-25T09:33:57.232Z,72.36
2022-08-25T09:36:48.597Z,71.92
2022-08-25T09:39:36.743Z,72.06
2022-08-25T09:42:49.793Z,68.28
2022-08-25T09:45:46.978Z,70.63
2022-08-25T09:51:47.800Z,70.06
2022-08-25T09:54:44.255Z,70.13
2022-08-25T09:57:44.623Z,70.09
2022-08-25T10:00:35.335Z,68.94
2022-08-25T10:03:24.746Z,69.69
2022-08-25T10:06:15.563Z,68.98
2022-08-25T10:09:08.996Z,68.16
2022-08-25T10:11:57.486Z,67.81
2022-08-25T10:14:45.199Z,67.85
2022-08-25T10:17:35.374Z,67.34
2022-08-25T10:20:26.460Z,66.17
2022-08-25T10:23:42.395Z,67.08
2022-08-25T10:26:44.756Z,63.24
2022-08-25T10:29:53.370Z,65.90
2022-08-25T10:32:52.281Z,63.11
2022-08-25T10:35:55.057Z,66.09
2022-08-25T10:38:56.765Z,64.20
2022-08-25T10:41:54.886Z,66.61
2022-08-25T10:45:22.326Z,65.02
2022-08-25T10:48:36.860Z,66.20
2022-08-25T10:51:32.085Z,61.58
2022-08-25T10:54:22.544Z,65.83
2022-08-25T10:57:44.917Z,64.90
2022-08-25T11:00:38.235Z,67.19
2022-08-25T11:03:47.195Z,64.58
2022-08-25T11:06:37.582Z,66.64
2022-08-25T11:09:31.166Z,66.87
2022-08-25T11:12:30.201Z,67.89
2022-08-25T11:15:29.789Z,67.32
2022-08-25T11:18:21.204Z,68.19
2022-08-25T11:21:30.431Z,66.71
2022-08-25T11:24:32.496Z,66.64
2022-08-25T11:27:31.260Z,67.66
2022-08-25T11:30:19.098Z,65.28
2022-08-25T11:33:06.994Z,67.68
2022-08-25T11:36:39.368Z,66.37
2022-08-25T11:39:36.335Z,65.73
2022-08-25T11:42:55.972Z,66.13
2022-08-25T11:46:06.148Z,65.70
2022-08-25T11:49:31.708Z,65.49
2022-08-25T11:52:34.743Z,66.13
2022-08-25T11:55:26.295Z,67.46
2022-08-25T11:58:52.286Z,65.88
2022-08-25T12:01:40.518Z,67.47
2022-08-25T12:04:48.495Z,66.03
2022-08-25T12:08:23.699Z,64.64
2022-08-25T12:11:11.877Z,67.30
2022-08-25T12:14:22.614Z,65.68
2022-08-25T12:17:24.513Z,65.17
2022-08-25T12:20:11.917Z,66.93
2022-08-25T12:23:00.253Z,66.56
2022-08-25T12:26:33.365Z,64.97
2022-08-25T12:29:52.502Z,65.47
2022-08-25T12:32:44.693Z,66.75
2022-08-25T12:36:01.760Z,66.63
2022-08-25T12:38:52.041Z,66.62
2022-08-25T12:41:56.926Z,64.80
2022-08-25T12:44:50.191Z,64.89
2022-08-25T12:47:38.419Z,64.93
2022-08-25T12:50:35.336Z,64.26
2022-08-25T12:53:37.926Z,63.30
2022-08-25T12:56:31.573Z,65.30
2022-08-25T12:59:32.202Z,63.25
2022-08-25T13:02:40.026Z,60.67
2022-08-25T13:06:00.423Z,57.26
2022-08-25T13:08:56.783Z,58.96
2022-08-25T13:12:14.505Z,58.09
2022-08-25T13:15:01.896Z,61.05
2022-08-25T13:17:49.060Z,61.87
2022-08-25T13:20:40.248Z,61.02
2022-08-25T13:23:34.216Z,61.17
2022-08-25T13:26:48.343Z,58.94
2022-08-25T13:29:49.948Z,61.20
2022-08-25T13:32:39.676Z,60.91
2022-08-25T13:35:32.548Z,61.44
2022-08-25T13:38:20.780Z,61.83
2022-08-25T13:41:09.801Z,61.87
2022-08-25T13:44:00.881Z,61.21
2022-08-25T13:47:09.291Z,60.04
2022-08-25T13:50:18.864Z,58.89
2022-08-25T13:53:26.016Z,59.14
2022-08-25T13:56:24.888Z,59.88
2022-08-25T13:59:27.510Z,59.57
2022-08-25T14:02:19.427Z,61.19
2022-08-25T14:05:07.453Z,60.58
2022-08-25T14:08:15.795Z,60.70
2022-08-25T14:11:30.898Z,59.00
2022-08-25T14:14:24.050Z,59.56
2022-08-25T14:17:28.809Z,60.92
2022-08-25T14:20:29.144Z,58.75
2022-08-25T14:23:20.403Z,59.80
2022-08-25T14:26:07.708Z,60.09
2022-08-25T14:28:56.656Z,59.63
2022-08-25T14:31:46.491Z,60.44
2022-08-25T14:34:39.634Z,59.31
2022-08-25T14:37:29.380Z,60.47
2022-08-25T14:40:20.098Z,60.38
2022-08-25T14:43:09.499Z,60.20
2022-08-25T14:45:57.522Z,60.06
2022-08-25T14:48:49.482Z,60.39
2022-08-25T14:51:40.009Z,59.69
2022-08-25T14:54:28.273Z,60.16
2022-08-25T14:57:16.644Z,60.73
2022-08-25T15:00:05.367Z,60.42
2022-08-25T15:02:59.460Z,60.51
2022-08-25T15:05:49.734Z,60.25
2022-08-25T15:08:58.330Z,60.04
2022-08-25T15:11:55.113Z,59.83
2022-08-25T15:14:45.412Z,60.32
2022-08-25T15:17:32.884Z,61.04
2022-08-25T15:20:20.205Z,60.15
2022-08-25T15:23:09.053Z,59.79
2022-08-25T15:25:57.736Z,59.75
2022-08-25T15:28:48.716Z,59.28
2022-08-25T15:31:36.186Z,59.69
2022-08-25T15:34:23.443Z,59.37
2022-08-25T15:37:14.112Z,59.56
2022-08-25T15:40:02.485Z,58.61
2022-08-25T15:42:54.524Z,58.79
2022-08-25T15:45:43.495Z,58.67
2022-08-25T15:48:37.974Z,59.13
2022-08-25T15:51:25.991Z,58.81
2022-08-25T15:54:16.447Z,59.13
2022-08-25T15:57:04.337Z,59.36
2022-08-25T15:59:56.159Z,59.17
2022-08-25T16:02:46.290Z,59.51
2022-08-25T16:05:37.257Z,59.71
2022-08-25T16:08:24.616Z,60.53
2022-08-25T16:11:21.524Z,59.78
2022-08-25T16:14:08.747Z,60.34
2022-08-25T16:16:58.367Z,60.44
2022-08-25T16:19:47.384Z,60.41
2022-08-25T16:22:34.686Z,60.13
2022-08-25T16:25:22.171Z,59.97
2022-08-25T16:28:11.470Z,59.71
2022-08-25T16:30:58.706Z,59.44
2022-08-25T16:33:46.352Z,60.19
2022-08-25T16:36:33.723Z,60.57
2022-08-25T16:39:24.282Z,61.01
2022-08-25T16:42:14.213Z,61.28
2022-08-25T16:45:02.662Z,61.73
2022-08-25T16:47:53.975Z,61.86
2022-08-25T16:50:41.240Z,62.08
2022-08-25T16:53:48.766Z,62.36
2022-08-25T16:56:38.893Z,62.54
2022-08-25T16:59:26.712Z,62.39
2022-08-25T17:02:13.986Z,62.75
2022-08-25T17:05:01.236Z,62.88
2022-08-25T17:08:08.569Z,62.99
2022-08-25T17:11:07.637Z,64.17
2022-08-25T17:13:58.512Z,64.08
2022-08-25T17:16:48.668Z,64.68
2022-08-25T17:19:37.933Z,64.86
2022-08-25T17:22:25.169Z,65.10
2022-08-25T17:25:13.236Z,65.37
2022-08-25T17:28:00.521Z,65.60
2022-08-25T17:30:49.833Z,65.83
2022-08-25T17:33:39.025Z,65.67
2022-08-25T17:36:27.124Z,66.08
2022-08-25T17:39:15.335Z,66.57
2022-08-25T17:42:02.585Z,66.50
2022-08-25T17:44:49.861Z,66.85
2022-08-25T17:47:37.135Z,67.02
2022-08-25T17:50:25.262Z,67.28
2022-08-25T17:53:14.028Z,67.23
2022-08-25T17:56:08.071Z,67.95
2022-08-25T17:59:00.186Z,68.09
2022-08-25T18:01:48.201Z,67.99
2022-08-25T18:04:38.329Z,68.26
2022-08-25T18:07:27.479Z,68.54
2022-08-25T18:11:09.762Z,71.05
2022-08-25T18:13:57.556Z,70.27
2022-08-25T18:16:49.467Z,69.94
2022-08-25T18:19:37.433Z,69.97
2022-08-25T18:22:27.507Z,69.83
2022-08-25T18:25:19.727Z,70.04
2022-08-25T18:28:08.756Z,69.74
2022-08-25T18:30:57.151Z,70.15
2022-08-25T18:33:45.393Z,70.15
2022-08-25T18:36:37.646Z,70.37
2022-08-25T18:39:45.064Z,70.30
2022-08-25T18:42:32.711Z,70.41
2022-08-25T18:45:22.505Z,70.22
2022-08-25T18:48:12.799Z,70.00
2022-08-25T18:51:02.193Z,70.47
2022-08-25T18:53:51.178Z,70.39
2022-08-25T18:56:42.016Z,70.39
2022-08-25T18:59:30.194Z,70.39
2022-08-25T19:02:17.861Z,70.49
2022-08-25T19:05:07.673Z,70.71
2022-08-25T19:07:55.671Z,70.71
2022-08-25T19:10:45.103Z,70.92
2022-08-25T19:13:32.414Z,71.38
2022-08-25T19:16:38.182Z,71.80
2022-08-25T19:19:25.502Z,71.26
2022-08-25T19:22:31.829Z,71.74
2022-08-25T19:25:21.950Z,71.91
2022-08-25T19:28:12.358Z,71.91
2022-08-25T19:31:01.839Z,72.32
2022-08-25T19:33:52.842Z,72.41
2022-08-25T19:36:41.228Z,72.26
2022-08-25T19:39:30.270Z,72.38
2022-08-25T19:42:32.706Z,72.67
2022-08-25T19:45:23.834Z,72.26
2022-08-25T19:48:12.574Z,72.67
2022-08-25T19:51:00.504Z,72.58
2022-08-25T19:53:51.179Z,72.96
2022-08-25T19:56:53.735Z,72.51
2022-08-25T19:59:45.815Z,72.60
2022-08-25T20:02:33.249Z,73.16
2022-08-25T20:05:23.774Z,73.22
2022-08-25T20:08:11.522Z,73.22
2022-08-25T20:10:58.798Z,73.29
2022-08-25T20:13:46.593Z,73.49
2022-08-25T20:16:37.654Z,73.02
2022-08-25T20:19:24.915Z,72.97
2022-08-25T20:22:17.689Z,72.60
2022-08-25T20:25:17.602Z,72.80
2022-08-25T20:28:12.618Z,73.16
2022-08-25T20:31:03.139Z,72.99
2022-08-25T20:33:51.517Z,72.53
2022-08-25T20:36:41.565Z,72.60
2022-08-25T20:39:40.090Z,72.66
2022-08-25T20:42:28.461Z,72.81
2022-08-25T20:45:19.434Z,72.62
2022-08-25T20:48:07.479Z,72.83
2022-08-25T20:50:57.839Z,73.09
2022-08-25T20:53:45.287Z,72.77
2022-08-25T20:56:33.241Z,72.60
2022-08-25T20:59:25.945Z,73.02
2022-08-25T21:02:15.119Z,73.05
2022-08-25T21:05:02.966Z,73.04
2022-08-25T21:07:50.311Z,72.85
2022-08-25T21:10:37.638Z,73.29
2022-08-25T21:13:25.395Z,72.94
2022-08-25T21:16:12.888Z,72.95
2022-08-25T21:19:02.748Z,73.12
2022-08-25T21:21:50.669Z,73.33
2022-08-25T21:24:42.848Z,73.88
2022-08-25T21:27:32.031Z,74.06
2022-08-25T21:30:19.553Z,73.96
2022-08-25T21:33:06.998Z,73.54
2022-08-25T21:35:54.487Z,73.79
2022-08-25T21:38:42.310Z,73.93
2022-08-25T21:41:33.189Z,73.81
2022-08-25T21:44:20.727Z,73.67
2022-08-25T21:47:08.084Z,74.37
2022-08-25T21:49:55.412Z,74.14
2022-08-25T21:52:43.166Z,73.79
2022-08-25T21:55:31.306Z,73.88
2022-08-25T21:58:18.649Z,73.96
2022-08-25T22:01:07.730Z,74.54
2022-08-25T22:03:58.481Z,74.75
2022-08-25T22:06:45.839Z,74.55
2022-08-25T22:09:34.146Z,74.63
2022-08-25T22:12:21.749Z,74.90
2022-08-25T22:15:09.499Z,74.75
2022-08-25T22:18:00.895Z,74.64
2022-08-25T22:20:48.939Z,75.00
2022-08-25T22:23:43.988Z,75.10
2022-08-25T22:26:33.488Z,75.32
2022-08-25T22:29:24.915Z,75.04
2022-08-25T22:32:13.546Z,74.94
2022-08-25T22:35:01.744Z,75.46
2022-08-25T22:37:48.963Z,75.31
2022-08-25T22:40:38.752Z,75.28
2022-08-25T22:43:26.102Z,75.05
2022-08-25T22:46:13.968Z,75.27
2022-08-25T22:49:04.345Z,75.37
2022-08-25T22:51:55.170Z,75.70
2022-08-25T22:54:43.279Z,75.65
2022-08-25T22:57:30.729Z,76.11
2022-08-25T23:00:18.296Z,75.78
2022-08-25T23:03:06.795Z,75.72
2022-08-25T23:05:55.492Z,75.54
2022-08-25T23:08:44.814Z,75.67
2022-08-25T23:11:32.264Z,75.78
2022-08-25T23:14:20.226Z,75.63
2022-08-25T23:17:08.966Z,75.61
2022-08-25T23:19:56.371Z,75.86
2022-08-25T23:22:43.645Z,76.39
2022-08-25T23:25:31.722Z,76.12
2022-08-25T23:28:19.063Z,75.86
2022-08-25T23:31:08.486Z,76.16
2022-08-25T23:33:59.650Z,75.75
2022-08-25T23:36:50.673Z,75.95
2022-08-25T23:39:40.934Z,75.69
2022-08-25T23:42:28.495Z,76.14
2022-08-25T23:45:16.014Z,75.92
2022-08-25T23:48:04.678Z,76.20
2022-08-25T23:50:53.936Z,76.03
2022-08-25T23:53:41.549Z,76.38
2022-08-25T23:56:28.776Z,75.86
2022-08-25T23:59:16.150Z,76.24
